Timonium, Maryland
Current Conditions -  °F | °C
As of 12:45 PM on Tuesday 21 Oct 2014 (Local Time) from KMTN Reporting Station
Scattered Clouds Scattered Clouds  
Wind Chill: 64°   Ceiling: Unl
Heat Index: 64°   Visibility: 10mi
Dew Point: 55°   Wind: 7mph
Humidity: 73%   Direction: 100°E
Pressure: 29.86"   Gusts: NA
Location:  39.4211°N, 76.6266°W
Report Text: KMTN 211645Z 10006KT 10SM SCT040 18/13 A2986
Loading
Personal Weather Stations






























Interactive Weather Map
Tropical Storm Tracking
New forecast layout! Learn more

10-Day Weather Forecast

Advertisements
Track Severe Weather on mobile